Time;durP1;ratioP1;P1;durP2;ratioP2;P2;SDS_P1;SDS_P2;PMS_P1;PMS_P2;Temp;Humidity;BMP_temperature;BMP_pressure;BME280_temperature;BME280_humidity;BME280_pressure;Samples;Min_cycle;Max_cycle;Signal;HPM_P1;HPM_P2
2022/03/16 00:01:52;;;;;;;;;18.25;12.00;;;;;17.61;60.76;101713.72;5085218;27;61949;-81
2022/03/16 00:04:18;;;;;;;;;18.50;16.25;;;;;17.68;60.67;101713.97;5103857;27;61699;-81
2022/03/16 00:06:43;;;;;;;;;19.50;17.00;;;;;17.67;60.74;101706.84;5102725;27;63076;-81
2022/03/16 00:09:15;;;;;;;;;18.25;16.50;;;;;17.77;60.54;101706.28;5103915;27;61709;-80
2022/03/16 00:11:40;;;;;;;;;16.00;16.00;;;;;17.78;60.56;101713.41;5103989;27;61770;-81
2022/03/16 00:14:05;;;;;;;;;14.75;13.00;;;;;17.79;60.41;101704.56;5104080;27;62100;-81
2022/03/16 00:16:31;;;;;;;;;14.50;14.50;;;;;17.81;60.29;101704.63;5102910;27;62142;-81
2022/03/16 00:18:56;;;;;;;;;14.25;12.00;;;;;17.79;60.46;101711.63;5085056;27;61900;-81
2022/03/16 00:21:22;;;;;;;;;16.75;16.75;;;;;17.79;60.33;101716.94;5101944;27;62005;-81
2022/03/16 00:23:48;;;;;;;;;20.50;17.25;;;;;17.77;60.30;101713.34;5103906;27;61876;-81
2022/03/16 00:26:14;;;;;;;;;16.75;15.50;;;;;17.79;60.39;101707.22;5102465;27;61792;-80
2022/03/16 00:28:39;;;;;;;;;16.00;15.25;;;;;17.84;60.54;101704.72;5103480;27;61897;-81
2022/03/16 00:31:05;;;;;;;;;16.75;13.50;;;;;17.84;60.33;101707.38;5104258;27;61802;-80
2022/03/16 00:33:31;;;;;;;;;16.25;13.25;;;;;17.86;60.49;101713.63;5103743;27;61843;-81
2022/03/16 00:35:57;;;;;;;;;18.00;17.00;;;;;17.85;60.44;101710.97;5100709;27;64333;-80
2022/03/16 00:38:23;;;;;;;;;18.25;16.25;;;;;17.89;60.20;101703.13;5085048;27;61810;-80
2022/03/16 00:40:48;;;;;;;;;18.75;15.50;;;;;17.93;60.23;101702.38;5103320;27;61839;-80
2022/03/16 00:43:14;;;;;;;;;20.00;15.75;;;;;17.96;60.21;101710.41;5085212;27;62119;-80
2022/03/16 00:45:40;;;;;;;;;15.50;12.25;;;;;17.94;60.20;101709.47;5102293;27;62689;-80
2022/03/16 00:48:05;;;;;;;;;16.50;15.00;;;;;17.95;60.15;101705.03;5103104;27;61778;-80
2022/03/16 00:50:32;;;;;;;;;16.75;15.00;;;;;17.94;60.02;101704.16;5102973;27;61749;-81
2022/03/16 00:52:57;;;;;;;;;12.50;12.25;;;;;17.96;60.30;101705.09;5103338;27;61887;-80
2022/03/16 00:55:23;;;;;;;;;17.75;13.50;;;;;17.96;60.15;101697.13;5102703;27;61857;-81
2022/03/16 00:57:48;;;;;;;;;17.25;14.00;;;;;17.97;60.12;101685.66;5102520;27;61880;-81
2022/03/16 01:00:14;;;;;;;;;16.25;13.00;;;;;18.01;59.77;101691.03;5094949;27;61963;-80
2022/03/16 01:02:39;;;;;;;;;16.25;11.50;;;;;18.01;59.72;101691.03;5103346;27;61720;-80
2022/03/16 01:05:05;;;;;;;;;16.75;14.00;;;;;18.00;59.76;101673.31;5102369;27;62761;-80
2022/03/16 01:07:31;;;;;;;;;20.25;16.00;;;;;17.99;59.60;101680.38;5100865;27;62023;-81
2022/03/16 01:09:57;;;;;;;;;15.75;14.50;;;;;17.97;59.76;101684.72;5103001;27;61626;-80
2022/03/16 01:12:23;;;;;;;;;17.00;15.50;;;;;17.97;59.65;101680.34;5119158;27;61993;-81
2022/03/16 01:14:48;;;;;;;;;17.75;14.50;;;;;17.99;59.83;101677.72;5103987;27;61893;-80
2022/03/16 01:17:14;;;;;;;;;10.00;9.75;;;;;17.96;59.47;101673.22;5106614;27;61908;-81
2022/03/16 01:19:39;;;;;;;;;16.50;13.50;;;;;17.92;59.42;101671.31;5105097;27;61817;-80
2022/03/16 01:22:06;;;;;;;;;14.50;13.75;;;;;17.94;59.82;101660.75;5106503;27;62083;-81
2022/03/16 01:24:32;;;;;;;;;15.50;11.50;;;;;17.91;59.66;101658.91;5106175;27;62104;-81
2022/03/16 01:26:59;;;;;;;;;19.75;13.50;;;;;17.88;59.64;101660.56;5104522;27;61817;-80
2022/03/16 01:29:24;;;;;;;;;19.50;14.25;;;;;17.84;59.64;101656.91;5105710;27;61760;-80
2022/03/16 01:31:54;;;;;;;;;21.00;15.75;;;;;17.79;59.85;101658.53;5106605;27;61798;-81
2022/03/16 01:34:21;;;;;;;;;14.25;11.00;;;;;17.77;59.88;101649.59;5105621;27;63097;-81
2022/03/16 01:36:47;;;;;;;;;18.75;16.25;;;;;17.77;59.83;101638.97;5106073;27;62193;-81
2022/03/16 01:39:12;;;;;;;;;14.50;12.00;;;;;17.78;59.76;101640.78;5106426;27;61921;-80
2022/03/16 01:41:38;;;;;;;;;19.00;14.25;;;;;17.75;59.90;101640.69;5106013;27;61790;-80
2022/03/16 01:44:04;;;;;;;;;15.25;15.00;;;;;17.75;59.77;101638.03;5105021;27;61815;-81
2022/03/16 01:46:30;;;;;;;;;16.50;13.50;;;;;17.72;59.64;101641.50;5106230;27;61719;-81
2022/03/16 01:48:57;;;;;;;;;18.25;16.75;;;;;17.72;59.72;101644.16;5106116;27;61877;-81
2022/03/16 01:51:23;;;;;;;;;15.75;12.00;;;;;17.68;59.70;101644.03;5104502;27;62004;-81
2022/03/16 01:53:49;;;;;;;;;18.00;13.00;;;;;17.62;59.64;101644.75;5104016;27;63802;-81
2022/03/16 01:56:16;;;;;;;;;18.00;13.75;;;;;17.60;59.67;101646.47;5105277;27;62345;-80
2022/03/16 01:58:42;;;;;;;;;15.75;14.50;;;;;17.52;59.96;101645.31;5105616;27;61850;-80
2022/03/16 02:01:07;;;;;;;;;13.25;12.00;;;;;17.48;60.04;101641.69;5104608;27;61721;-81
2022/03/16 02:03:32;;;;;;;;;12.00;12.00;;;;;17.55;60.19;101642.78;5086718;27;62522;-80
2022/03/16 02:05:59;;;;;;;;;15.00;15.00;;;;;17.56;59.98;101645.47;5105417;27;61812;-80
2022/03/16 02:08:28;;;;;;;;;18.00;15.50;;;;;17.53;59.89;101649.78;5105821;27;61688;-81
2022/03/16 02:10:53;;;;;;;;;13.00;11.25;;;;;17.51;59.93;101649.75;5105988;27;61967;-81
2022/03/16 02:13:19;;;;;;;;;17.75;17.00;;;;;17.48;59.95;101647.00;5104623;27;62704;-80
2022/03/16 02:15:44;;;;;;;;;14.75;14.00;;;;;17.47;60.07;101644.31;5105622;27;61744;-81
2022/03/16 02:18:10;;;;;;;;;16.00;12.75;;;;;17.47;59.74;101649.63;5105668;27;61756;-80
2022/03/16 02:20:35;;;;;;;;;16.50;15.00;;;;;17.46;59.79;101639.84;5087371;27;61807;-80
2022/03/16 02:23:04;;;;;;;;;10.00;10.00;;;;;17.49;60.03;101642.59;5104674;27;62262;-81
2022/03/16 02:25:32;;;;;;;;;16.50;15.25;;;;;17.52;60.02;101634.72;5104231;27;61748;-81
2022/03/16 02:27:58;;;;;;;;;15.25;14.50;;;;;17.55;59.56;101641.03;5104729;27;62003;-80
2022/03/16 02:30:26;;;;;;;;;18.00;11.50;;;;;17.55;59.79;101640.13;5105385;27;61987;-80
2022/03/16 02:32:53;;;;;;;;;17.25;13.25;;;;;17.51;59.81;101627.63;5103435;27;61908;-81
2022/03/16 02:35:19;;;;;;;;;17.50;16.00;;;;;17.49;59.33;101632.88;5103962;27;61948;-80
2022/03/16 02:37:45;;;;;;;;;24.25;15.75;;;;;17.50;59.56;101631.09;5104985;27;61962;-81
2022/03/16 02:40:17;;;;;;;;;16.75;15.00;;;;;17.45;59.77;101623.00;5105329;27;61665;-81
2022/03/16 02:42:44;;;;;;;;;21.50;15.00;;;;;17.41;59.88;101633.50;5085597;27;63492;-81
2022/03/16 02:45:10;;;;;;;;;21.00;14.75;;;;;17.34;60.16;101622.69;5086969;27;61876;-81
2022/03/16 02:47:38;;;;;;;;;18.75;15.00;;;;;17.31;60.03;101622.63;5105447;27;61939;-81
2022/03/16 02:50:03;;;;;;;;;15.00;15.00;;;;;17.24;60.30;101620.59;5105280;27;61794;-80
2022/03/16 02:52:29;;;;;;;;;16.50;15.00;;;;;17.19;60.27;101621.34;5102600;27;61834;-80
2022/03/16 02:54:55;;;;;;;;;17.00;14.75;;;;;17.12;60.48;101620.25;5104983;27;61867;-81
2022/03/16 02:57:20;;;;;;;;;11.75;11.75;;;;;17.12;60.50;101618.50;5104193;27;62038;-81
2022/03/16 02:59:46;;;;;;;;;13.00;11.25;;;;;17.14;60.60;101618.56;5104893;27;61883;-80
2022/03/16 03:02:12;;;;;;;;;12.25;12.25;;;;;17.13;60.61;101609.66;5085962;27;64514;-81
2022/03/16 03:04:37;;;;;;;;;12.25;9.50;;;;;17.17;60.49;101619.53;5105095;27;62397;-80
2022/03/16 03:07:05;;;;;;;;;20.25;16.25;;;;;17.17;60.61;101622.16;5104368;27;61950;-80
2022/03/16 03:09:31;;;;;;;;;21.50;16.00;;;;;17.17;60.27;101622.16;5086557;27;62094;-80
2022/03/16 03:11:59;;;;;;;;;22.00;18.50;;;;;17.17;60.36;101624.81;5085272;27;64273;-81
2022/03/16 03:14:25;;;;;;;;;17.75;12.25;;;;;17.15;60.63;101623.88;5085880;27;61887;-80
2022/03/16 03:16:51;;;;;;;;;24.25;18.25;;;;;17.15;60.54;101629.19;5104692;27;61918;-81
2022/03/16 03:19:16;;;;;;;;;19.25;18.75;;;;;17.15;60.47;101621.22;5104920;27;62140;-81
2022/03/16 03:21:42;;;;;;;;;18.00;15.00;;;;;17.17;60.44;101626.59;5103251;27;61905;-81
2022/03/16 03:24:07;;;;;;;;;20.50;20.25;;;;;17.17;60.63;101621.28;5104742;27;61842;-81
2022/03/16 03:26:33;;;;;;;;;17.50;13.75;;;;;17.19;60.55;101624.88;5103739;27;61795;-81
2022/03/16 03:28:58;;;;;;;;;21.75;17.00;;;;;17.21;60.26;101623.19;5085961;27;61971;-81
2022/03/16 03:31:24;;;;;;;;;23.00;19.75;;;;;17.23;60.52;101615.28;5103887;27;61779;-81
2022/03/16 03:33:49;;;;;;;;;20.00;16.25;;;;;17.24;60.29;101615.31;5104460;27;61738;-81
2022/03/16 03:36:15;;;;;;;;;17.25;14.75;;;;;17.25;60.19;101610.91;5103860;27;61789;-81
2022/03/16 03:38:40;;;;;;;;;19.75;17.75;;;;;17.19;60.37;101606.31;5085830;27;62372;-79
2022/03/16 03:41:06;;;;;;;;;16.25;14.25;;;;;17.14;60.39;101619.44;5103119;27;61715;-80
2022/03/16 03:43:31;;;;;;;;;21.00;16.75;;;;;17.09;60.57;101615.72;5085805;27;61856;-81
2022/03/16 03:45:56;;;;;;;;;15.50;14.25;;;;;17.04;61.02;101621.75;5085931;27;61849;-81
2022/03/16 03:48:22;;;;;;;;;28.75;18.75;;;;;17.05;60.85;101616.50;5085978;27;61745;-81
2022/03/16 03:50:47;;;;;;;;;21.25;20.50;;;;;17.07;61.12;101624.50;5084207;27;64885;-80
2022/03/16 03:53:13;;;;;;;;;20.50;19.00;;;;;17.09;60.80;101618.38;5103650;27;61853;-80
2022/03/16 03:55:38;;;;;;;;;25.00;16.00;;;;;17.14;60.90;101619.44;5104257;27;62330;-81
2022/03/16 03:58:03;;;;;;;;;22.50;20.00;;;;;17.17;61.11;101614.22;5103816;27;61766;-81
2022/03/16 04:00:29;;;;;;;;;22.25;18.50;;;;;17.21;60.67;101616.97;5103130;27;62795;-81
2022/03/16 04:02:54;;;;;;;;;24.00;17.25;;;;;17.20;60.70;101612.50;5103654;27;61812;-81
2022/03/16 04:05:20;;;;;;;;;26.25;19.00;;;;;17.13;60.75;101612.31;5104039;27;62499;-81
2022/03/16 04:07:48;;;;;;;;;29.50;19.25;;;;;17.05;61.09;101616.50;5103338;27;62158;-80
2022/03/16 04:10:14;;;;;;;;;24.75;18.50;;;;;16.99;60.99;101611.00;5103175;27;61748;-81
2022/03/16 04:12:39;;;;;;;;;17.75;15.00;;;;;16.97;60.94;101610.06;5085448;27;61946;-81
2022/03/16 04:15:06;;;;;;;;;28.50;22.25;;;;;16.95;61.37;101610.00;5103730;27;61942;-81
2022/03/16 04:17:32;;;;;;;;;15.25;12.25;;;;;16.91;61.25;101602.81;5085520;27;62083;-81
2022/03/16 04:19:57;;;;;;;;;25.25;19.50;;;;;16.89;61.37;101596.53;5084722;27;63726;-81
2022/03/16 04:22:26;;;;;;;;;23.00;21.75;;;;;16.86;61.37;101587.59;5102663;27;62047;-80
2022/03/16 04:24:52;;;;;;;;;20.25;19.75;;;;;16.82;61.43;101583.06;5085491;27;61896;-81
2022/03/16 04:27:18;;;;;;;;;24.25;20.00;;;;;16.79;61.56;101580.25;5103598;27;62144;-81
2022/03/16 04:29:43;;;;;;;;;25.50;18.75;;;;;16.74;61.71;101585.44;5102655;27;63239;-80
2022/03/16 04:32:08;;;;;;;;;23.25;19.00;;;;;16.71;61.74;101585.31;5085139;27;61795;-81
2022/03/16 04:34:34;;;;;;;;;22.25;20.25;;;;;16.71;61.76;101585.31;5103509;27;61787;-81
2022/03/16 04:36:59;;;;;;;;;22.50;21.00;;;;;16.66;62.09;101578.97;5102838;27;62081;-80
2022/03/16 04:39:25;;;;;;;;;27.75;22.00;;;;;16.65;61.91;101566.59;5084434;27;61834;-81
2022/03/16 04:41:50;;;;;;;;;26.00;22.75;;;;;16.64;62.12;101568.31;5103292;27;62017;-81
2022/03/16 04:44:16;;;;;;;;;27.25;20.25;;;;;16.65;61.86;101569.22;5103167;27;61742;-81
2022/03/16 04:46:41;;;;;;;;;21.25;20.25;;;;;16.60;62.09;101566.41;5103437;27;62185;-80
2022/03/16 04:49:07;;;;;;;;;28.25;21.00;;;;;16.56;62.42;101568.09;5103935;27;62124;-81
2022/03/16 04:51:32;;;;;;;;;24.75;19.25;;;;;16.61;61.99;101572.63;5087636;27;61931;-81
2022/03/16 04:53:58;;;;;;;;;34.00;24.25;;;;;16.59;61.96;101574.34;5088473;27;61777;-81
2022/03/16 04:56:23;;;;;;;;;22.50;19.50;;;;;16.59;62.09;101574.34;5088179;27;62264;-81
2022/03/16 04:58:48;;;;;;;;;21.50;19.25;;;;;16.58;62.22;101575.16;5104710;27;63093;-80
2022/03/16 05:01:14;;;;;;;;;31.00;24.00;;;;;16.58;62.17;101569.88;5106890;27;61706;-81
2022/03/16 05:03:39;;;;;;;;;26.50;22.25;;;;;16.55;62.42;101573.31;5088574;27;62041;-81
2022/03/16 05:06:05;;;;;;;;;29.75;19.50;;;;;16.56;62.32;101588.41;5105984;27;62074;-81
2022/03/16 05:08:35;;;;;;;;;26.75;20.00;;;;;16.50;62.53;101569.63;5106010;27;62131;-81
2022/03/16 05:11:02;;;;;;;;;17.25;17.25;;;;;16.48;62.49;101560.72;5106690;27;62056;-81
2022/03/16 05:13:27;;;;;;;;;23.00;20.00;;;;;16.47;62.94;101567.75;5106994;27;62102;-81
2022/03/16 05:15:53;;;;;;;;;26.50;22.25;;;;;16.50;62.30;101564.34;5088431;27;62004;-81
2022/03/16 05:18:18;;;;;;;;;26.50;21.00;;;;;16.52;62.38;101558.22;5105966;27;62907;-81
2022/03/16 05:20:44;;;;;;;;;23.75;21.75;;;;;16.55;62.40;101571.56;5105787;27;61701;-80
2022/03/16 05:23:09;;;;;;;;;24.75;19.25;;;;;16.56;62.09;101569.84;5106596;27;62101;-81
2022/03/16 05:25:35;;;;;;;;;26.75;19.75;;;;;16.56;62.41;101569.84;5106699;27;61734;-81
2022/03/16 05:28:01;;;;;;;;;22.25;21.25;;;;;16.54;62.27;101575.09;5105492;27;61883;-81
2022/03/16 05:30:27;;;;;;;;;25.25;17.25;;;;;16.55;62.39;101579.50;5106007;27;61964;-80
2022/03/16 05:32:55;;;;;;;;;21.00;20.00;;;;;16.56;62.54;101586.63;5087617;27;61815;-81
2022/03/16 05:35:20;;;;;;;;;22.25;20.00;;;;;16.60;62.37;101576.13;5087733;27;61937;-81
2022/03/16 05:37:46;;;;;;;;;27.50;22.00;;;;;16.59;62.54;101584.94;5087004;27;64596;-81
2022/03/16 05:40:12;;;;;;;;;29.25;22.75;;;;;16.52;62.77;101590.03;5087447;27;61718;-80
2022/03/16 05:42:38;;;;;;;;;30.75;25.00;;;;;16.59;62.58;101598.19;5106362;27;61795;-81
2022/03/16 05:45:05;;;;;;;;;32.25;26.25;;;;;16.66;62.55;101589.56;5106126;27;61779;-80
2022/03/16 05:47:32;;;;;;;;;31.00;27.00;;;;;16.68;62.10;101602.03;5105014;27;61875;-81
2022/03/16 05:49:57;;;;;;;;;24.50;22.50;;;;;16.65;62.46;101595.75;5105614;27;62254;-80
2022/03/16 05:52:24;;;;;;;;;27.00;24.25;;;;;16.65;62.49;101590.44;5105683;27;61782;-81
2022/03/16 05:54:52;;;;;;;;;22.00;18.00;;;;;16.63;62.35;101584.19;5105961;27;62033;-81
2022/03/16 05:57:20;;;;;;;;;29.50;25.75;;;;;16.66;62.40;101587.81;5086394;27;61861;-81
2022/03/16 05:59:48;;;;;;;;;34.25;28.25;;;;;16.70;62.47;101584.41;5105458;27;61765;-81
2022/03/16 06:02:14;;;;;;;;;30.50;23.00;;;;;16.63;62.47;101593.03;5105846;27;61728;-81
2022/03/16 06:04:41;;;;;;;;;36.00;26.50;;;;;16.62;62.49;101585.91;5102609;27;62009;-81
2022/03/16 06:07:07;;;;;;;;;30.75;25.00;;;;;16.63;62.69;101587.72;5095200;27;63109;-87
2022/03/16 06:09:34;;;;;;;;;34.25;26.25;;;;;16.65;62.47;101586.03;5074685;27;61807;-88
2022/03/16 06:12:00;;;;;;;;;24.75;22.50;;;;;16.67;62.49;101597.59;5085217;27;61932;-84
2022/03/16 06:14:26;;;;;;;;;25.75;23.25;;;;;16.66;62.46;101598.41;5091283;27;62134;-80
2022/03/16 06:16:52;;;;;;;;;22.50;21.25;;;;;16.66;62.45;101592.22;5084362;27;64633;-77
2022/03/16 06:19:19;;;;;;;;;23.25;20.25;;;;;16.68;62.46;101593.19;5104527;27;61823;-84
2022/03/16 06:21:44;;;;;;;;;28.75;25.75;;;;;16.65;62.71;101591.34;5067856;28;61994;-85
2022/03/16 06:24:11;;;;;;;;;30.25;23.50;;;;;16.64;62.47;101583.31;5081898;27;62257;-88
2022/03/16 06:26:36;;;;;;;;;28.75;23.75;;;;;16.64;62.86;101588.63;5045367;28;63768;-85
2022/03/16 06:29:02;;;;;;;;;34.50;24.75;;;;;16.63;62.57;101592.13;5051844;28;62072;-82
2022/03/16 06:31:30;;;;;;;;;27.50;21.00;;;;;16.65;62.56;101593.97;5066418;28;61773;-86
2022/03/16 06:33:56;;;;;;;;;28.00;23.50;;;;;16.64;62.60;101604.53;5066112;28;61906;-87
2022/03/16 06:36:22;;;;;;;;;28.00;24.00;;;;;16.68;62.50;101615.28;5068252;28;61918;-81
2022/03/16 06:38:47;;;;;;;;;32.00;22.50;;;;;16.73;62.42;101612.78;5075855;27;61907;-85
2022/03/16 06:41:13;;;;;;;;;27.25;23.00;;;;;16.73;62.48;101618.06;5076091;27;62007;-85
2022/03/16 06:43:38;;;;;;;;;31.00;26.25;;;;;16.75;62.29;101613.72;5077171;27;62295;-77
2022/03/16 06:46:04;;;;;;;;;27.00;20.50;;;;;16.80;62.10;101613.91;5076180;27;64795;-81
2022/03/16 06:48:29;;;;;;;;;32.75;26.75;;;;;16.86;62.13;101620.34;5075921;27;61805;-80
2022/03/16 06:50:55;;;;;;;;;29.75;21.75;;;;;16.91;61.71;101620.47;5089219;27;61875;-80
2022/03/16 06:53:20;;;;;;;;;34.50;29.75;;;;;16.96;62.28;101625.06;5092798;27;61833;-81
2022/03/16 06:55:46;;;;;;;;;31.75;27.50;;;;;16.98;62.07;101613.59;5092717;27;61923;-80
2022/03/16 06:58:11;;;;;;;;;29.00;24.00;;;;;17.02;61.92;101632.31;5088634;27;61906;-79
2022/03/16 07:00:37;;;;;;;;;31.50;25.75;;;;;17.04;61.73;101630.59;5091154;27;61877;-84
2022/03/16 07:03:05;;;;;;;;;28.75;25.75;;;;;17.05;61.92;101632.44;5066607;28;61955;-82
2022/03/16 07:05:33;;;;;;;;;27.75;23.75;;;;;17.07;61.58;101633.34;5083782;28;61983;-83
2022/03/16 07:08:01;;;;;;;;;35.00;24.00;;;;;17.09;61.73;101626.34;5065600;28;61848;-83
2022/03/16 07:10:27;;;;;;;;;29.25;24.75;;;;;17.13;61.63;101630.88;5084030;28;61732;-82
2022/03/16 07:12:53;;;;;;;;;29.50;25.50;;;;;17.15;61.41;101634.50;5084569;27;62233;-83
2022/03/16 07:15:19;;;;;;;;;33.25;26.00;;;;;17.17;61.45;101627.47;5087456;27;62162;-82
2022/03/16 07:17:45;;;;;;;;;33.75;27.00;;;;;17.20;61.49;101621.38;5083933;28;62048;-84
2022/03/16 07:20:11;;;;;;;;;33.00;28.75;;;;;17.25;61.38;101622.41;5071792;27;61962;-83
2022/03/16 07:22:37;;;;;;;;;23.50;22.25;;;;;17.27;61.16;101622.47;5083784;28;62402;-82
2022/03/16 07:25:09;;;;;;;;;30.50;26.50;;;;;17.27;61.03;101615.41;5083177;28;62129;-82
2022/03/16 07:27:49;;;;;;;;;27.75;24.50;;;;;17.29;61.09;101615.47;5065088;28;61851;-83
2022/03/16 07:30:18;;;;;;;;;25.25;24.25;;;;;17.31;61.11;101622.63;5083666;27;61716;-82
2022/03/16 07:32:44;;;;;;;;;34.50;24.75;;;;;17.34;60.98;101622.69;5083670;28;61818;-83
2022/03/16 07:35:10;;;;;;;;;34.50;27.50;;;;;17.40;60.96;101626.41;5064644;28;62124;-83
2022/03/16 07:37:36;;;;;;;;;28.50;25.50;;;;;17.45;60.64;101630.97;5065035;28;61780;-83
2022/03/16 07:40:03;;;;;;;;;28.25;26.00;;;;;17.48;60.60;101638.13;5065365;28;61968;-83
2022/03/16 07:42:30;;;;;;;;;26.25;25.00;;;;;17.52;60.56;101632.97;5071405;28;62238;-82
2022/03/16 07:44:57;;;;;;;;;35.00;28.75;;;;;17.52;60.30;101621.44;5064592;28;63638;-82
2022/03/16 07:47:25;;;;;;;;;33.25;28.25;;;;;17.53;60.04;101625.91;5064412;28;61828;-82
2022/03/16 07:49:51;;;;;;;;;27.50;23.25;;;;;17.57;60.25;101627.81;5083422;28;61900;-83
2022/03/16 07:52:17;;;;;;;;;38.25;27.00;;;;;17.60;60.05;101624.31;5083047;28;61355;-83
2022/03/16 07:54:42;;;;;;;;;27.75;24.50;;;;;17.62;59.78;101631.47;5060746;28;63684;-82
2022/03/16 07:57:08;;;;;;;;;32.50;25.00;;;;;17.65;59.83;101628.94;5061990;28;61912;-83
2022/03/16 07:59:35;;;;;;;;;35.00;25.25;;;;;17.67;59.96;101628.94;5070514;28;62078;-83
2022/03/16 08:02:01;;;;;;;;;34.50;29.25;;;;;17.68;59.69;101634.31;5099456;27;62174;-83
2022/03/16 08:04:27;;;;;;;;;31.75;25.25;;;;;17.69;59.61;101624.59;5102608;27;62825;-82
2022/03/16 08:06:52;;;;;;;;;36.50;31.25;;;;;17.72;59.72;101622.03;5103467;27;61899;-84
2022/03/16 08:09:17;;;;;;;;;23.50;23.00;;;;;17.73;59.61;101627.38;5103635;27;62354;-85
2022/03/16 08:11:43;;;;;;;;;31.75;26.75;;;;;17.76;59.72;101626.56;5103890;27;61692;-85
2022/03/16 08:14:08;;;;;;;;;30.50;26.75;;;;;17.75;59.38;101620.34;5103197;27;62241;-84
2022/03/16 08:16:34;;;;;;;;;36.00;24.75;;;;;17.74;59.71;101618.56;5102972;27;61878;-83
2022/03/16 08:18:59;;;;;;;;;31.75;28.75;;;;;17.74;60.00;101613.25;5103592;27;61873;-80
2022/03/16 08:21:25;;;;;;;;;24.75;24.75;;;;;17.77;59.56;101610.66;5103303;27;62196;-84
2022/03/16 08:23:51;;;;;;;;;32.50;30.75;;;;;17.71;59.29;101614.91;5101704;27;63444;-84
2022/03/16 08:26:16;;;;;;;;;31.75;30.00;;;;;17.70;59.46;101611.34;5103231;27;62046;-84
2022/03/16 08:28:45;;;;;;;;;33.75;28.00;;;;;17.78;59.38;101616.88;5101515;27;61794;-83
2022/03/16 08:31:11;;;;;;;;;35.25;26.75;;;;;17.85;59.29;101624.22;5101829;27;62183;-84
2022/03/16 08:33:37;;;;;;;;;33.25;27.00;;;;;17.87;59.27;101611.88;5102612;27;61846;-84
2022/03/16 08:36:07;;;;;;;;;34.25;29.00;;;;;17.85;59.14;101615.34;5102706;27;62009;-82
2022/03/16 08:38:36;;;;;;;;;42.50;27.00;;;;;17.86;59.15;101620.69;5103240;27;62225;-84
2022/03/16 08:41:02;;;;;;;;;32.00;28.00;;;;;17.91;59.26;101621.72;5101399;27;61944;-84
2022/03/16 08:43:28;;;;;;;;;34.25;31.25;;;;;17.97;58.90;101620.97;5102147;27;63472;-83
2022/03/16 08:45:53;;;;;;;;;31.50;25.25;;;;;18.02;58.98;101615.78;5102023;27;61860;-83
2022/03/16 08:48:19;;;;;;;;;39.25;28.00;;;;;18.05;58.87;101630.06;5103062;27;61799;-81
2022/03/16 08:50:44;;;;;;;;;28.75;25.25;;;;;18.10;58.73;101636.41;5102895;27;61973;-81
2022/03/16 08:53:10;;;;;;;;;32.00;26.00;;;;;18.15;58.50;101644.50;5102079;27;61928;-81
2022/03/16 08:55:37;;;;;;;;;29.50;26.50;;;;;18.18;58.11;101645.47;5111241;27;61742;-81
2022/03/16 08:58:02;;;;;;;;;30.50;26.25;;;;;18.23;58.49;101648.28;5108198;27;61877;-81
2022/03/16 09:00:28;;;;;;;;;35.75;30.25;;;;;18.23;58.04;101655.31;5111028;27;61883;-79
2022/03/16 09:02:53;;;;;;;;;36.25;27.75;;;;;18.27;58.12;101649.25;5106470;27;63529;-81
2022/03/16 09:05:19;;;;;;;;;33.25;28.75;;;;;18.34;58.09;101659.19;5111888;27;62159;-81
2022/03/16 09:07:44;;;;;;;;;31.50;26.25;;;;;18.38;57.78;101661.97;5122944;27;61859;-81
2022/03/16 09:10:10;;;;;;;;;27.50;23.25;;;;;18.45;57.61;101659.47;5123860;27;61650;-81
2022/03/16 09:12:36;;;;;;;;;30.75;26.00;;;;;18.46;57.57;101651.53;5122104;27;62582;-81
2022/03/16 09:15:03;;;;;;;;;42.75;30.00;;;;;18.54;57.72;101652.63;5123494;27;62031;-82
2022/03/16 09:17:30;;;;;;;;;29.75;26.25;;;;;18.60;57.33;101649.22;5108430;27;62197;-80
2022/03/16 09:19:57;;;;;;;;;29.00;29.00;;;;;18.66;57.19;101641.41;5110880;27;62198;-80
2022/03/16 09:22:23;;;;;;;;;31.25;28.75;;;;;18.71;56.73;101649.50;5088047;27;62127;-80
2022/03/16 09:24:49;;;;;;;;;27.00;22.50;;;;;18.72;56.74;101643.31;5097531;27;62037;-80
2022/03/16 09:27:16;;;;;;;;;24.25;23.75;;;;;18.76;56.84;101645.19;5093278;27;61840;-81
2022/03/16 09:29:46;;;;;;;;;22.75;18.25;;;;;18.78;56.81;101649.72;5088746;27;61871;-81
2022/03/16 09:32:13;;;;;;;;;41.75;34.75;;;;;18.87;56.86;101658.78;5084922;27;62027;-81
2022/03/16 09:34:40;;;;;;;;;46.75;29.50;;;;;18.96;57.13;101654.59;5099484;27;62270;-80
2022/03/16 09:37:07;;;;;;;;;33.75;29.50;;;;;19.02;56.30;101648.50;5093215;27;61958;-82
2022/03/16 09:39:37;;;;;;;;;29.00;27.25;;;;;19.11;56.39;101645.16;5101679;27;61850;-82
2022/03/16 09:42:09;;;;;;;;;28.25;21.75;;;;;19.17;56.27;101638.25;5087362;27;63702;-81
2022/03/16 09:44:36;;;;;;;;;39.00;28.50;;;;;19.24;55.94;101644.59;5102019;27;62162;-81
2022/03/16 09:47:09;;;;;;;;;34.75;29.25;;;;;19.31;55.85;101643.84;5104222;27;61961;-82
2022/03/16 09:49:37;;;;;;;;;37.50;31.25;;;;;19.36;55.58;101639.53;5102298;27;61985;-81
2022/03/16 09:52:03;;;;;;;;;13.25;12.00;;;;;19.40;55.24;101645.81;5113489;27;62124;-82
2022/03/16 09:54:29;;;;;;;;;33.00;28.50;;;;;19.46;55.58;101637.09;5104284;27;62042;-81
2022/03/16 09:56:55;;;;;;;;;25.75;23.50;;;;;19.54;55.37;101639.03;5103991;27;61782;-81
2022/03/16 09:59:21;;;;;;;;;35.00;27.75;;;;;19.57;55.12;101628.44;5103868;27;62126;-81
2022/03/16 10:01:58;;;;;;;;;30.25;26.75;;;;;19.65;54.82;101630.38;5104695;27;62628;-81
2022/03/16 10:04:33;;;;;;;;;40.75;33.50;;;;;19.67;54.54;101636.63;5109505;27;61770;-81
2022/03/16 10:07:00;;;;;;;;;50.00;34.00;;;;;19.66;54.49;101633.06;5111474;27;61968;-80
2022/03/16 10:15:11;;;;;;;;;39.75;35.75;;;;;19.66;54.50;101626.84;5103499;27;62170;-80
2022/03/16 10:17:49;;;;;;;;;41.00;29.75;;;;;19.68;54.72;101635.75;5112565;27;61778;-81
2022/03/16 10:20:21;;;;;;;;;36.50;33.25;;;;;19.69;54.22;101630.47;5103615;27;61839;-76
2022/03/16 10:23:06;;;;;;;;;34.00;30.75;;;;;19.75;54.14;101627.03;5123621;27;63705;-75
2022/03/16 10:25:53;;;;;;;;;36.25;28.75;;;;;19.79;53.38;101624.50;5115699;27;62029;-76
2022/03/16 10:28:22;;;;;;;;;31.50;24.25;;;;;19.89;54.14;101632.66;5103194;27;62068;-76
2022/03/16 10:30:52;;;;;;;;;38.50;28.25;;;;;19.91;53.54;101623.84;5110665;27;62287;-75
2022/03/16 10:33:19;;;;;;;;;33.00;27.25;;;;;20.00;53.08;101633.78;5108610;27;63081;-76
2022/03/16 10:35:56;;;;;;;;;41.25;32.75;;;;;20.14;53.66;101628.72;5112811;27;61874;-75
2022/03/16 10:38:22;;;;;;;;;35.00;31.00;;;;;20.26;53.26;101623.59;5109723;27;62024;-76
2022/03/16 10:40:53;;;;;;;;;30.75;28.00;;;;;20.34;52.21;101616.63;5109701;27;61712;-75
2022/03/16 10:49:04;;;;;;;;;33.25;27.75;;;;;20.66;52.71;101610.97;5112754;27;62238;-75
2022/03/16 10:51:30;;;;;;;;;35.00;29.00;;;;;20.77;51.84;101604.03;5110436;27;61684;-76
2022/03/16 10:53:58;;;;;;;;;39.25;32.25;;;;;20.71;51.60;101595.94;5111219;27;63462;-79
2022/03/16 10:56:26;;;;;;;;;37.00;32.25;;;;;20.72;51.63;101595.06;5102421;27;62035;-79
2022/03/16 10:58:53;;;;;;;;;31.50;28.50;;;;;20.83;51.78;101592.56;5104334;27;61949;-78
2022/03/16 11:01:20;;;;;;;;;43.25;30.00;;;;;20.86;50.87;101583.69;5102902;27;62127;-75
2022/03/16 11:03:49;;;;;;;;;32.50;31.25;;;;;20.91;51.34;101588.25;5094932;27;62119;-76
2022/03/16 11:06:20;;;;;;;;;40.75;32.50;;;;;20.94;50.95;101577.59;5077636;28;62190;-76
2022/03/16 11:08:47;;;;;;;;;30.25;30.00;;;;;21.05;51.21;101575.09;5062314;28;61983;-76
2022/03/16 11:14:21;;;;;;;;;37.50;31.75;;;;;21.37;51.19;101572.84;5008725;28;62988;-75
2022/03/16 11:16:47;;;;;;;;;44.00;37.50;;;;;21.47;50.11;101567.66;5027103;28;61941;-75
2022/03/16 11:19:17;;;;;;;;;39.50;33.25;;;;;21.63;50.74;101557.16;5028537;28;61937;-76
2022/03/16 11:21:53;;;;;;;;;43.25;31.25;;;;;21.75;50.53;101558.19;5018051;28;61976;-72